Current Weather

Narita Intl

Narita Intl, Japan (RJAA)

Report from: Sunday, February 25, 2024 3:00 AM JST
Current time: Sunday, February 25, 2024 3:33 AM JST

Nearby weather – Weather history – Daily summaries
Weather forecast

Temperature2.0°C (35.6°F)
Wind chill-1.9°C (28.6°F)
Dew point-1.0°C (30.2°F)
Winds 8 kts (4.1 m/s, 9.2 mph) North-Northwest (340°)
Visibility6.2 mi. (10 km)
Altimeter30.27 in.Hg (1025 mB)
Relative humidity80 %
Density altitude-1,894 ft. (-577 m)
Remarks Fully automated report
No significant changes expected in the next two hours
Flight conditions Visual Meteorological Conditions
Raw dataRJAA 241800Z AUTO 34008KT 9999 NSC 02/M01 Q1025 NOSIG
An error has occurred. This application may no longer respond until reloaded. Reload 🗙